createdAt,value
2022-11-23T00:01:00.785Z,14.55
2022-11-23T00:03:28.353Z,14.70
2022-11-23T00:05:55.672Z,14.45
2022-11-23T00:08:22.978Z,14.77
2022-11-23T00:10:50.542Z,13.88
2022-11-23T00:13:17.846Z,15.02
2022-11-23T00:15:45.176Z,14.35
2022-11-23T00:18:12.804Z,16.15
2022-11-23T00:20:40.375Z,14.75
2022-11-23T00:23:07.692Z,15.07
2022-11-23T00:25:35.499Z,15.30
2022-11-23T00:28:02.863Z,15.77
2022-11-23T00:30:30.422Z,14.18
2022-11-23T00:32:58.050Z,13.90
2022-11-23T00:35:25.365Z,14.73
2022-11-23T00:37:52.816Z,14.95
2022-11-23T00:40:20.424Z,14.38
2022-11-23T00:42:47.825Z,14.57
2022-11-23T00:45:15.170Z,13.13
2022-11-23T00:47:42.760Z,12.85
2022-11-23T00:50:10.090Z,14.15
2022-11-23T00:52:37.406Z,13.43
2022-11-23T00:55:05.465Z,13.35
2022-11-23T00:57:33.885Z,13.82
2022-11-23T01:00:01.305Z,13.38
2022-11-23T01:02:30.254Z,12.73
2022-11-23T01:04:57.575Z,13.52
2022-11-23T01:07:25.049Z,13.25
2022-11-23T01:09:52.637Z,13.60
2022-11-23T01:12:19.957Z,12.88
2022-11-23T01:14:47.918Z,12.68
2022-11-23T01:17:15.506Z,13.13
2022-11-23T01:19:42.874Z,13.32
2022-11-23T01:22:10.175Z,13.15
2022-11-23T01:24:37.746Z,11.88
2022-11-23T01:27:05.054Z,12.85
2022-11-23T01:29:32.684Z,13.00
2022-11-23T01:32:01.638Z,12.95
2022-11-23T01:34:29.097Z,13.38
2022-11-23T01:36:58.628Z,12.65
2022-11-23T01:39:28.552Z,12.70
2022-11-23T01:41:56.247Z,13.32
2022-11-23T01:44:24.788Z,11.88
2022-11-23T01:46:54.347Z,11.48
2022-11-23T01:49:22.333Z,12.73
2022-11-23T01:51:51.273Z,10.77
2022-11-23T01:54:25.525Z,11.00
2022-11-23T01:56:57.662Z,11.98
2022-11-23T01:59:25.608Z,11.82
2022-11-23T02:01:52.934Z,12.93
2022-11-23T02:04:23.878Z,11.48
2022-11-23T02:06:52.722Z,12.27
2022-11-23T02:09:21.772Z,11.27
2022-11-23T02:11:49.427Z,11.77
2022-11-23T02:14:22.003Z,12.57
2022-11-23T02:16:50.770Z,11.23
2022-11-23T02:19:34.997Z,12.13
2022-11-23T02:22:08.152Z,12.43
2022-11-23T02:24:41.307Z,11.38
2022-11-23T02:27:09.556Z,12.20
2022-11-23T02:29:44.545Z,13.13
2022-11-23T02:32:11.893Z,11.18
2022-11-23T02:34:39.481Z,11.98
2022-11-23T02:37:08.330Z,12.10
2022-11-23T02:39:40.664Z,11.50
2022-11-23T02:42:09.322Z,12.60
2022-11-23T02:44:42.684Z,11.38
2022-11-23T02:47:11.224Z,11.77
2022-11-23T02:49:43.091Z,11.93
2022-11-23T02:52:10.618Z,11.82
2022-11-23T02:54:37.995Z,12.65
2022-11-23T02:57:06.189Z,12.13
2022-11-23T02:59:34.433Z,11.80
2022-11-23T03:02:04.362Z,11.68
2022-11-23T03:04:32.064Z,12.07
2022-11-23T03:06:59.781Z,11.75
2022-11-23T03:09:28.316Z,11.88
2022-11-23T03:11:55.733Z,11.45
2022-11-23T03:14:25.765Z,11.10
2022-11-23T03:16:53.288Z,10.55
2022-11-23T03:19:20.797Z,11.12
2022-11-23T03:22:07.374Z,10.23
2022-11-23T03:24:34.749Z,10.30
2022-11-23T03:27:02.878Z,10.82
2022-11-23T03:29:30.551Z,11.50
2022-11-23T03:31:58.639Z,11.20
2022-11-23T03:34:26.388Z,11.48
2022-11-23T03:36:53.737Z,10.82
2022-11-23T03:39:21.153Z,10.35
2022-11-23T03:41:50.105Z,11.02
2022-11-23T03:44:17.892Z,10.50
2022-11-23T03:46:45.428Z,9.32
2022-11-23T03:49:13.005Z,10.82
2022-11-23T03:51:40.322Z,10.70
2022-11-23T03:54:08.647Z,9.57
2022-11-23T03:56:36.287Z,10.63
2022-11-23T03:59:03.665Z,10.02
2022-11-23T04:01:31.062Z,9.65
2022-11-23T04:03:59.983Z,10.77
2022-11-23T04:06:27.796Z,10.35
2022-11-23T04:09:01.553Z,9.80
2022-11-23T04:11:30.753Z,9.90
2022-11-23T04:13:58.190Z,9.85
2022-11-23T04:16:25.826Z,9.57
2022-11-23T04:18:53.381Z,10.32
2022-11-23T04:21:20.712Z,9.93
2022-11-23T04:23:48.285Z,9.18
2022-11-23T04:26:16.266Z,10.27
2022-11-23T04:28:44.156Z,10.65
2022-11-23T04:31:11.646Z,10.18
2022-11-23T04:33:40.164Z,10.25
2022-11-23T04:36:08.556Z,9.57
2022-11-23T04:38:36.973Z,9.45
2022-11-23T04:41:05.543Z,9.45
2022-11-23T04:43:32.895Z,9.07
2022-11-23T04:46:00.678Z,9.43
2022-11-23T04:48:28.822Z,9.57
2022-11-23T04:50:57.500Z,9.32
2022-11-23T04:53:25.738Z,1.40
2022-11-23T04:55:53.613Z,9.20
2022-11-23T04:58:20.937Z,8.57
2022-11-23T05:00:50.624Z,8.57
2022-11-23T05:03:18.647Z,9.23
2022-11-23T05:05:46.000Z,8.13
2022-11-23T05:08:13.899Z,8.32
2022-11-23T05:10:42.117Z,8.23
2022-11-23T05:13:09.535Z,9.10
2022-11-23T05:15:36.875Z,8.20
2022-11-23T05:18:10.568Z,7.72
2022-11-23T05:20:38.471Z,7.57
2022-11-23T05:23:06.550Z,7.70
2022-11-23T05:25:34.313Z,8.70
2022-11-23T05:28:11.433Z,9.20
2022-11-23T05:30:49.486Z,7.93
2022-11-23T05:33:16.950Z,8.23
2022-11-23T05:35:44.511Z,7.30
2022-11-23T05:38:12.127Z,7.68
2022-11-23T05:40:39.628Z,8.10
2022-11-23T05:43:08.661Z,7.32
2022-11-23T05:45:36.486Z,7.65
2022-11-23T05:48:04.573Z,7.50
2022-11-23T05:50:32.583Z,7.95
2022-11-23T05:53:14.798Z,7.55
2022-11-23T05:55:43.440Z,7.47
2022-11-23T05:58:10.762Z,7.32
2022-11-23T06:00:38.200Z,7.62
2022-11-23T06:03:06.086Z,7.70
2022-11-23T06:05:33.638Z,8.05
2022-11-23T06:08:01.057Z,7.65
2022-11-23T06:10:28.736Z,9.20
2022-11-23T06:13:02.266Z,10.65
2022-11-23T06:15:30.221Z,7.93
2022-11-23T06:18:01.584Z,8.05
2022-11-23T06:20:33.013Z,7.40
2022-11-23T06:23:01.362Z,7.70
2022-11-23T06:25:28.919Z,7.87
2022-11-23T06:27:57.835Z,8.15
2022-11-23T06:30:26.362Z,8.85
2022-11-23T06:32:53.912Z,9.45
2022-11-23T06:35:21.856Z,8.48
2022-11-23T06:37:50.958Z,8.32
2022-11-23T06:40:18.370Z,8.05
2022-11-23T06:42:46.048Z,8.95
2022-11-23T06:45:13.894Z,8.02
2022-11-23T06:47:41.583Z,8.63
2022-11-23T06:50:09.498Z,8.23
2022-11-23T06:52:38.112Z,7.70
2022-11-23T06:55:05.747Z,8.45
2022-11-23T06:57:33.592Z,8.52
2022-11-23T07:00:01.045Z,10.50
2022-11-23T07:02:29.098Z,8.95
2022-11-23T07:04:56.986Z,7.90
2022-11-23T07:07:24.606Z,8.82
2022-11-23T07:09:55.479Z,7.97
2022-11-23T07:12:26.024Z,9.32
2022-11-23T07:14:53.708Z,7.85
2022-11-23T07:17:21.152Z,8.48
2022-11-23T07:19:48.760Z,8.80
2022-11-23T07:22:16.202Z,8.27
2022-11-23T07:24:46.673Z,9.07
2022-11-23T07:27:17.322Z,9.00
2022-11-23T07:29:45.008Z,9.95
2022-11-23T07:32:15.015Z,7.97
2022-11-23T07:34:42.588Z,7.68
2022-11-23T07:37:10.400Z,7.72
2022-11-23T07:39:56.329Z,8.15
2022-11-23T07:42:36.811Z,8.27
2022-11-23T07:45:09.346Z,9.05
2022-11-23T07:47:37.162Z,8.30
2022-11-23T07:50:09.800Z,7.37
2022-11-23T07:52:37.990Z,11.10
2022-11-23T07:55:06.092Z,8.68
2022-11-23T07:57:34.265Z,7.70
2022-11-23T08:00:01.994Z,0.80
2022-11-23T08:02:52.746Z,7.37
2022-11-23T08:05:27.738Z,7.22
2022-11-23T08:08:02.218Z,8.27
2022-11-23T08:10:30.892Z,7.60
2022-11-23T08:13:04.135Z,8.15
2022-11-23T08:15:32.178Z,7.57
2022-11-23T08:18:01.215Z,6.82
2022-11-23T08:20:29.232Z,7.25
2022-11-23T08:22:57.039Z,7.18
2022-11-23T08:25:26.022Z,6.90
2022-11-23T08:28:01.797Z,7.30
2022-11-23T08:30:31.093Z,7.05
2022-11-23T08:32:58.462Z,7.72
2022-11-23T08:35:25.795Z,7.03
2022-11-23T08:37:53.382Z,7.05
2022-11-23T08:40:25.008Z,7.97
2022-11-23T08:42:53.388Z,8.15
2022-11-23T08:45:20.943Z,7.53
2022-11-23T08:47:48.411Z,7.20
2022-11-23T08:50:15.993Z,7.35
2022-11-23T08:52:43.514Z,7.72
2022-11-23T08:55:11.109Z,8.75
2022-11-23T08:57:38.825Z,7.78
2022-11-23T09:00:06.777Z,7.55
2022-11-23T09:02:34.114Z,7.68
2022-11-23T09:05:01.748Z,7.43
2022-11-23T09:07:29.233Z,12.93
2022-11-23T09:09:56.626Z,10.13
2022-11-23T09:12:25.537Z,7.97
2022-11-23T09:14:53.404Z,7.07
2022-11-23T09:17:20.713Z,6.60
2022-11-23T09:19:50.311Z,8.45
2022-11-23T09:22:17.627Z,8.35
2022-11-23T09:24:45.006Z,9.57
2022-11-23T09:27:12.594Z,8.23
2022-11-23T09:29:39.925Z,10.07
2022-11-23T09:32:07.244Z,7.68
2022-11-23T09:34:35.036Z,8.15
2022-11-23T09:37:02.461Z,8.05
2022-11-23T09:39:29.814Z,6.80
2022-11-23T09:42:09.921Z,5.78
2022-11-23T09:44:49.339Z,6.00
2022-11-23T09:47:38.687Z,7.15
2022-11-23T09:50:09.237Z,6.07
2022-11-23T09:52:38.681Z,7.55
2022-11-23T09:55:34.393Z,7.07
2022-11-23T09:58:05.556Z,7.75
2022-11-23T10:00:39.053Z,8.40
2022-11-23T10:03:06.678Z,8.85
2022-11-23T10:05:37.879Z,9.65
2022-11-23T10:08:14.343Z,7.95
2022-11-23T10:10:47.382Z,7.25
2022-11-23T10:13:21.136Z,7.32
2022-11-23T10:16:07.401Z,7.30
2022-11-23T10:18:52.885Z,6.97
2022-11-23T10:21:26.522Z,7.60
2022-11-23T10:23:54.782Z,6.55
2022-11-23T10:26:33.052Z,7.97
2022-11-23T10:29:11.673Z,5.78
2022-11-23T10:31:40.850Z,7.03
2022-11-23T10:34:13.389Z,6.10
2022-11-23T10:36:41.651Z,6.18
2022-11-23T10:39:21.518Z,6.40
2022-11-23T10:41:49.968Z,5.43
2022-11-23T10:44:31.543Z,6.95
2022-11-23T10:47:00.137Z,6.12
2022-11-23T10:49:34.254Z,7.03
2022-11-23T10:52:07.089Z,6.07
2022-11-23T10:54:53.124Z,9.20
2022-11-23T10:57:28.239Z,6.60
2022-11-23T11:00:11.387Z,8.32
2022-11-23T11:02:47.470Z,6.90
2022-11-23T11:05:40.266Z,6.65
2022-11-23T11:08:19.223Z,6.87
2022-11-23T11:11:03.429Z,6.45
2022-11-23T11:13:45.019Z,7.30
2022-11-23T11:16:26.112Z,7.97
2022-11-23T11:18:53.822Z,7.32
2022-11-23T11:21:31.274Z,8.25
2022-11-23T11:24:04.940Z,8.18
2022-11-23T11:26:34.288Z,10.25
2022-11-23T11:29:03.962Z,11.05
2022-11-23T11:31:47.671Z,8.93
2022-11-23T11:34:21.986Z,7.45
2022-11-23T11:36:57.078Z,7.27
2022-11-23T11:39:32.331Z,6.95
2022-11-23T11:44:28.073Z,7.97
2022-11-23T11:47:06.130Z,7.60
2022-11-23T11:49:39.701Z,7.43
2022-11-23T11:52:23.701Z,7.37
2022-11-23T11:55:10.077Z,8.30
2022-11-23T11:57:45.943Z,7.87
2022-11-23T12:00:17.359Z,8.07
2022-11-23T12:03:22.652Z,7.70
2022-11-23T12:05:52.183Z,6.68
2022-11-23T12:08:41.012Z,7.62
2022-11-23T12:11:11.696Z,7.90
2022-11-23T12:13:42.747Z,6.70
2022-11-23T12:16:25.176Z,7.57
2022-11-23T12:19:14.117Z,7.53
2022-11-23T12:22:09.258Z,7.05
2022-11-23T12:25:14.497Z,8.25
2022-11-23T12:28:29.559Z,11.50
2022-11-23T12:31:20.647Z,9.40
2022-11-23T12:33:54.796Z,8.85
2022-11-23T12:39:39.167Z,10.80
2022-11-23T12:42:24.505Z,10.85
2022-11-23T12:45:22.630Z,11.40
2022-11-23T12:48:04.421Z,9.70
2022-11-23T12:50:40.117Z,10.23
2022-11-23T12:53:35.760Z,11.85
2022-11-23T12:56:14.030Z,9.13
2022-11-23T12:58:42.956Z,11.45
2022-11-23T13:01:16.516Z,9.90
2022-11-23T13:03:59.382Z,11.02
2022-11-23T13:10:09.911Z,8.05
2022-11-23T13:12:57.264Z,8.13
2022-11-23T13:16:06.509Z,8.70
2022-11-23T13:19:11.441Z,8.02
2022-11-23T13:21:41.079Z,8.13
2022-11-23T13:24:32.136Z,8.55
2022-11-23T13:27:31.845Z,8.27
2022-11-23T13:30:08.094Z,10.15
2022-11-23T13:32:38.523Z,9.43
2022-11-23T13:35:28.811Z,9.63
2022-11-23T13:37:56.247Z,8.20
2022-11-23T13:40:34.619Z,9.45
2022-11-23T13:43:06.630Z,6.90
2022-11-23T13:45:36.543Z,7.20
2022-11-23T13:48:13.321Z,6.12
2022-11-23T13:50:50.851Z,7.50
2022-11-23T13:53:34.598Z,6.60
2022-11-23T13:56:39.568Z,6.32
2022-11-23T13:59:22.599Z,8.15
2022-11-23T14:02:08.045Z,7.75
2022-11-23T14:04:40.469Z,6.87
2022-11-23T14:07:25.374Z,7.18
2022-11-23T14:12:30.691Z,7.72
2022-11-23T14:15:07.040Z,8.15
2022-11-23T14:18:04.712Z,7.65
2022-11-23T14:20:57.267Z,7.00
2022-11-23T14:23:47.016Z,7.65
2022-11-23T14:26:34.158Z,6.07
2022-11-23T14:29:18.046Z,6.60
2022-11-23T14:32:16.046Z,7.43
2022-11-23T14:34:52.319Z,8.23
2022-11-23T14:37:49.814Z,7.53
2022-11-23T14:40:55.242Z,7.15
2022-11-23T14:43:23.216Z,6.18
2022-11-23T14:45:50.727Z,6.68
2022-11-23T14:48:35.484Z,6.43
2022-11-23T14:51:06.203Z,6.57
2022-11-23T14:53:36.616Z,7.37
2022-11-23T14:56:04.396Z,6.95
2022-11-23T14:58:32.642Z,8.13
2022-11-23T15:01:03.295Z,6.68
2022-11-23T15:03:50.122Z,5.75
2022-11-23T15:06:18.628Z,6.72
2022-11-23T15:08:53.117Z,6.50
2022-11-23T15:11:30.294Z,7.72
2022-11-23T15:14:03.732Z,7.50
2022-11-23T15:16:39.785Z,8.10
2022-11-23T15:19:36.692Z,10.20
2022-11-23T15:22:04.036Z,10.25
2022-11-23T15:24:32.025Z,16.20
2022-11-23T15:27:10.798Z,12.32
2022-11-23T15:29:40.170Z,12.60
2022-11-23T15:32:31.371Z,18.20
2022-11-23T15:35:04.549Z,20.70
2022-11-23T15:37:33.011Z,16.73
2022-11-23T15:40:00.991Z,16.25
2022-11-23T15:42:28.651Z,18.60
2022-11-23T15:44:56.308Z,16.85
2022-11-23T15:47:27.849Z,13.35
2022-11-23T15:50:03.874Z,12.63
2022-11-23T15:52:35.478Z,13.80
2022-11-23T15:55:09.220Z,12.55
2022-11-23T15:57:38.082Z,13.35
2022-11-23T16:00:09.453Z,14.38
2022-11-23T16:02:39.250Z,11.35
2022-11-23T16:05:17.708Z,11.18
2022-11-23T16:08:02.374Z,10.07
2022-11-23T16:10:31.959Z,10.52
2022-11-23T16:13:01.652Z,10.52
2022-11-23T16:15:32.390Z,12.60
2022-11-23T16:18:01.290Z,16.30
2022-11-23T16:20:30.510Z,16.55
2022-11-23T16:23:00.440Z,19.52
2022-11-23T16:25:34.152Z,18.02
2022-11-23T16:28:03.705Z,16.90
2022-11-23T16:30:40.858Z,21.40
2022-11-23T16:33:16.352Z,27.83
2022-11-23T16:35:45.505Z,39.83
2022-11-23T16:38:14.747Z,27.85
2022-11-23T16:40:43.542Z,17.27
2022-11-23T16:43:12.181Z,16.70
2022-11-23T16:45:41.844Z,15.73
2022-11-23T16:48:28.144Z,16.25
2022-11-23T16:50:57.627Z,15.00
2022-11-23T16:53:26.979Z,13.88
2022-11-23T16:55:55.690Z,13.27
2022-11-23T16:58:25.434Z,13.90
2022-11-23T17:00:53.359Z,14.50
2022-11-23T17:03:21.824Z,14.13
2022-11-23T17:05:49.799Z,16.87
2022-11-23T17:08:23.562Z,16.25
2022-11-23T17:13:29.770Z,18.87
2022-11-23T17:15:57.422Z,19.23
2022-11-23T17:18:24.992Z,17.90
2022-11-23T17:20:53.354Z,18.73
2022-11-23T17:23:26.868Z,17.83
2022-11-23T17:25:54.580Z,16.05
2022-11-23T17:28:25.861Z,15.50
2022-11-23T17:30:54.011Z,14.57
2022-11-23T17:33:21.941Z,13.60
2022-11-23T17:35:50.143Z,14.38
2022-11-23T17:38:19.969Z,15.55
2022-11-23T17:40:47.913Z,14.90
2022-11-23T17:43:15.814Z,18.05
2022-11-23T17:45:45.786Z,16.42
2022-11-23T17:48:16.410Z,19.80
2022-11-23T17:50:44.057Z,18.00
2022-11-23T17:53:12.004Z,18.98
2022-11-23T17:55:40.596Z,15.02
2022-11-23T17:58:10.353Z,15.23
2022-11-23T18:00:38.921Z,14.63
2022-11-23T18:03:07.279Z,14.48
2022-11-23T18:05:35.246Z,15.90
2022-11-23T18:08:03.175Z,18.23
2022-11-23T18:10:31.388Z,15.85
2022-11-23T18:12:59.387Z,14.87
2022-11-23T18:15:27.791Z,14.20
2022-11-23T18:17:58.994Z,13.48
2022-11-23T18:20:31.068Z,12.13
2022-11-23T18:23:00.376Z,14.50
2022-11-23T18:25:28.468Z,14.75
2022-11-23T18:27:56.424Z,14.75
2022-11-23T18:30:25.620Z,14.85
2022-11-23T18:32:53.404Z,14.07
2022-11-23T18:35:21.233Z,13.45
2022-11-23T18:37:50.657Z,13.30
2022-11-23T18:40:19.803Z,13.60
2022-11-23T18:42:47.800Z,12.75
2022-11-23T18:45:16.149Z,12.63
2022-11-23T18:47:43.732Z,13.02
2022-11-23T18:50:14.512Z,12.98
2022-11-23T18:52:42.728Z,18.08
2022-11-23T18:55:10.658Z,22.40
2022-11-23T18:57:39.773Z,21.60
2022-11-23T19:00:08.872Z,44.38
2022-11-23T19:02:37.887Z,39.58
2022-11-23T19:05:06.264Z,30.77
2022-11-23T19:07:34.627Z,24.87
2022-11-23T19:10:02.731Z,21.15
2022-11-23T19:12:31.255Z,18.15
2022-11-23T19:15:00.560Z,16.20
2022-11-23T19:17:28.851Z,17.45
2022-11-23T19:19:56.974Z,15.55
2022-11-23T19:22:25.379Z,15.40
2022-11-23T19:24:54.362Z,13.93
2022-11-23T19:27:22.359Z,13.27
2022-11-23T19:29:51.686Z,12.98
2022-11-23T19:32:20.533Z,13.07
2022-11-23T19:34:48.644Z,13.50
2022-11-23T19:37:17.532Z,13.88
2022-11-23T19:39:45.886Z,13.90
2022-11-23T19:42:13.976Z,13.00
2022-11-23T19:44:41.823Z,12.85
2022-11-23T19:47:15.432Z,13.55
2022-11-23T19:49:46.032Z,12.82
2022-11-23T19:52:13.865Z,12.65
2022-11-23T19:54:41.499Z,12.20
2022-11-23T19:57:09.779Z,13.25
2022-11-23T19:59:37.657Z,13.45
2022-11-23T20:02:06.693Z,11.73
2022-11-23T20:04:35.151Z,12.57
2022-11-23T20:07:03.268Z,11.82
2022-11-23T20:09:31.706Z,11.57
2022-11-23T20:12:00.992Z,11.12
2022-11-23T20:14:28.862Z,11.68
2022-11-23T20:16:57.999Z,11.27
2022-11-23T20:19:26.323Z,10.70
2022-11-23T20:21:53.891Z,12.18
2022-11-23T20:24:21.745Z,10.65
2022-11-23T20:26:50.867Z,11.15
2022-11-23T20:29:20.488Z,11.07
2022-11-23T20:31:51.830Z,11.75
2022-11-23T20:34:22.965Z,11.80
2022-11-23T20:36:52.803Z,12.02
2022-11-23T20:39:20.612Z,12.57
2022-11-23T20:41:50.149Z,13.02
2022-11-23T20:44:21.786Z,13.65
2022-11-23T20:47:05.049Z,13.48
2022-11-23T20:49:33.014Z,13.38
2022-11-23T20:52:02.107Z,12.88
2022-11-23T20:54:30.231Z,13.68
2022-11-23T20:57:00.861Z,13.02
2022-11-23T20:59:29.410Z,13.00
2022-11-23T21:01:57.324Z,12.93
2022-11-23T21:04:25.267Z,12.45
2022-11-23T21:06:53.497Z,12.68
2022-11-23T21:09:21.270Z,13.27
2022-11-23T21:12:07.845Z,12.68
2022-11-23T21:14:36.077Z,13.30
2022-11-23T21:17:04.628Z,13.57
2022-11-23T21:19:34.071Z,12.82
2022-11-23T21:22:09.736Z,12.45
2022-11-23T21:24:37.577Z,12.37
2022-11-23T21:27:06.848Z,13.60
2022-11-23T21:29:34.535Z,13.07
2022-11-23T21:32:01.988Z,12.95
2022-11-23T21:34:30.332Z,13.35
2022-11-23T21:36:58.154Z,12.63
2022-11-23T21:39:25.572Z,13.55
2022-11-23T21:41:53.910Z,12.43
2022-11-23T21:44:22.773Z,12.48
2022-11-23T21:46:50.735Z,12.25
2022-11-23T21:49:18.386Z,12.88
2022-11-23T21:51:45.972Z,12.88
2022-11-23T21:54:15.696Z,12.15
2022-11-23T21:56:44.971Z,12.50
2022-11-23T21:59:12.572Z,11.82
2022-11-23T22:01:40.577Z,12.32
2022-11-23T22:04:13.327Z,13.38
2022-11-23T22:06:42.015Z,11.52
2022-11-23T22:09:11.029Z,13.18
2022-11-23T22:11:41.085Z,13.88
2022-11-23T22:14:11.870Z,13.68
2022-11-23T22:16:40.868Z,12.65
2022-11-23T22:19:11.751Z,12.75
2022-11-23T22:21:40.581Z,13.80
2022-11-23T22:24:13.041Z,13.13
2022-11-23T22:26:40.577Z,11.85
2022-11-23T22:29:08.377Z,13.57
2022-11-23T22:31:36.144Z,13.10
2022-11-23T22:34:06.074Z,14.32
2022-11-23T22:36:33.744Z,14.10
2022-11-23T22:39:03.729Z,12.57
2022-11-23T22:41:37.044Z,12.95
2022-11-23T22:44:10.047Z,12.70
2022-11-23T22:46:38.317Z,11.82
2022-11-23T22:49:06.162Z,11.60
2022-11-23T22:51:33.940Z,11.48
2022-11-23T22:54:02.240Z,12.15
2022-11-23T22:56:30.838Z,12.75
2022-11-23T22:58:58.566Z,12.45
2022-11-23T23:01:28.679Z,13.13
2022-11-23T23:03:58.261Z,12.80
2022-11-23T23:06:28.409Z,11.77
2022-11-23T23:08:59.965Z,12.55
2022-11-23T23:11:30.015Z,14.05
2022-11-23T23:13:58.758Z,13.40
2022-11-23T23:16:26.884Z,13.93
2022-11-23T23:18:56.835Z,14.25
2022-11-23T23:21:25.528Z,13.30
2022-11-23T23:23:55.736Z,14.13
2022-11-23T23:26:24.876Z,13.62
2022-11-23T23:28:57.039Z,14.52
2022-11-23T23:31:24.763Z,14.40
2022-11-23T23:33:53.667Z,14.55
2022-11-23T23:36:22.689Z,15.02
2022-11-23T23:38:50.890Z,14.95
2022-11-23T23:41:18.881Z,14.00
2022-11-23T23:43:48.150Z,14.15
2022-11-23T23:46:16.208Z,14.55
2022-11-23T23:48:44.088Z,14.82
2022-11-23T23:51:22.389Z,14.35
2022-11-23T23:53:51.336Z,15.07
2022-11-23T23:56:27.322Z,14.55
2022-11-23T23:58:56.757Z,14.82
